Camden On Gauley, West Virginia
Current Conditions -  °F | °C
As of 9:35 PM on Wednesday 17 Dec 2014 (Local Time) from KLWB Reporting Station
Broken Clouds Broken Clouds  
Wind Chill: 26°   Ceiling: 2000
Heat Index: 33°   Visibility: 10mi
Dew Point: 26°   Wind: 9mph
Humidity: 74%   Direction: 300°WNW
Pressure: 30.1"   Gusts: NA
Location:  38.37°N, 80.6°W
Report Text: KLWB 180235Z AUTO 30008KT 270V330 10SM BKN020 01/M03 A3010 RMK AO2 T00071035
Loading
Personal Weather Stations






























Interactive Weather Map New forecast layout! Learn more

10-Day Weather Forecast

Advertisements
Track Severe Weather on mobile